Moquegua, Peru
Current Conditions -  °F | °C
As of 3:00 PM on Thursday 23 Oct 2014 (Local Time) from SPQU Reporting Station
Clear Clear  
Wind Chill: 70°   Ceiling: Unl
Heat Index: 70°   Visibility: 6mi
Dew Point: 16°   Wind: 14mph
Humidity: 13%   Direction: 260°W
Pressure: 30.27"   Gusts: NA
Location:  17.19°S, 70.94°W
Report Text: SPQU 232000Z 26012KT 220V280 CAVOK 21/M09 Q1025 NOSIGRMK PP000
Loading
Personal Weather Stations






























Interactive Weather Map
Tropical Storm Tracking
New forecast layout! Learn more

10-Day Weather Forecast

Advertisements
Track Severe Weather on mobile